Valley Park, Missouri
Current Conditions -  °F | °C
As of 5:54 PM on Friday 21 Nov 2014 (Local Time) from KSUS Reporting Station
Overcast Overcast  
Wind Chill: 38°   Ceiling: 2300
Heat Index: 42°   Visibility: 10mi
Dew Point: 23°   Wind: 7mph
Humidity: 47%   Direction: 110°ESE
Pressure: 30.27"   Gusts: NA
Location:  38.55°N, 90.49°W
Report Text: KSUS 212354Z 11006KT 10SM OVC023 06/M05 A3027 RMK AO2 SLP258 T00561050 10061 20039 58007
Loading
Personal Weather Stations






























Interactive Weather Map New forecast layout! Learn more

10-Day Weather Forecast

Advertisements
Track Severe Weather on mobile